Terminal Aerodrome Forecast
Issued by NWS Springfield, MO

Home | Current Version | Previous Version | Text Only | Print | Product List | Glossary On
Versions: 1 2 3 4 5 6 7 8 9 10 11 12 13 14 15 16 17 18 19 20 21
042
FTUS43 KSGF 252320
TAFSGF
TAF
KSGF 252320Z 2600/2624 16011KT P6SM SKC
     FM260400 15013KT P6SM SKC WS020/20040KT
     FM261200 17012G20KT P6SM SCT060
     FM261800 21012G20KT P6SM BKN050=

USA.gov is the U.S. government's official web portal to all federal, state and local government web resources and services.